Time;durP1;ratioP1;P1;durP2;ratioP2;P2;SDS_P1;SDS_P2;PMS_P1;PMS_P2;Temp;Humidity;BMP_temperature;BMP_pressure;BME280_temperature;BME280_humidity;BME280_pressure;Samples;Min_cycle;Max_cycle;Signal;HPM_P1;HPM_P2
2023/08/21 00:00:55;;;;;;;0.00;0.00;;;;;;;18.65;100.00;102301.19;5063066;28;20591;-46
2023/08/21 00:03:21;;;;;;;0.00;0.00;;;;;;;18.68;100.00;102294.50;5092697;28;20028;-45
2023/08/21 00:05:47;;;;;;;0.00;0.00;;;;;;;18.69;100.00;102301.63;5092168;28;20024;-47
2023/08/21 00:08:12;;;;;;;0.00;0.00;;;;;;;18.70;100.00;102297.88;5077886;28;20071;-46
2023/08/21 00:10:38;;;;;;;0.00;0.00;;;;;;;18.73;100.00;102300.19;5072044;28;20060;-48
2023/08/21 00:13:04;;;;;;;0.00;0.00;;;;;;;18.70;100.00;102292.41;5070961;28;20040;-47
2023/08/21 00:15:29;;;;;;;0.00;0.00;;;;;;;18.71;100.00;102288.63;5071411;28;20028;-45
2023/08/21 00:17:55;;;;;;;0.00;0.00;;;;;;;18.68;100.00;102289.03;5072229;28;20029;-45
2023/08/21 00:20:20;;;;;;;0.00;0.00;;;;;;;18.63;100.00;102287.75;5082509;28;20028;-46
2023/08/21 00:22:46;;;;;;;0.00;0.00;;;;;;;18.56;100.00;102286.88;5084832;28;20040;-45
2023/08/21 00:25:11;;;;;;;0.00;0.00;;;;;;;18.46;100.00;102291.84;5071817;28;20029;-46
2023/08/21 00:27:36;;;;;;;0.00;0.00;;;;;;;18.40;100.00;102285.31;5071322;28;20024;-43
2023/08/21 00:30:02;;;;;;;0.00;0.00;;;;;;;18.39;100.00;102290.94;5071328;28;20103;-43
2023/08/21 00:32:27;;;;;;;0.00;0.00;;;;;;;18.34;100.00;102280.63;5071455;28;20094;-45
2023/08/21 00:34:53;;;;;;;0.00;0.00;;;;;;;18.30;100.00;102275.78;5071656;28;20495;-43
2023/08/21 00:37:19;;;;;;;0.00;0.00;;;;;;;18.24;100.00;102282.84;5070915;28;20020;-45
2023/08/21 00:39:44;;;;;;;0.00;0.00;;;;;;;18.25;100.00;102286.44;5059329;28;20486;-45
2023/08/21 00:42:10;;;;;;;0.00;0.00;;;;;;;18.21;100.00;102286.81;5071348;28;20115;-44
2023/08/21 00:44:35;;;;;;;0.00;0.00;;;;;;;18.24;100.00;102285.59;5071437;28;20074;-45
2023/08/21 00:47:01;;;;;;;0.00;0.00;;;;;;;18.23;100.00;102285.81;5053114;28;20032;-45
2023/08/21 00:49:26;;;;;;;0.00;0.00;;;;;;;18.21;100.00;102281.38;5053105;28;20059;-46
2023/08/21 00:51:53;;;;;;;0.00;0.00;;;;;;;18.21;100.00;102284.09;5070728;28;20107;-45
2023/08/21 00:54:19;;;;;;;0.00;0.00;;;;;;;18.20;100.00;102290.59;5071222;28;20028;-44
2023/08/21 00:56:44;;;;;;;0.00;0.00;;;;;;;18.19;100.00;102290.78;5070911;28;20103;-43
2023/08/21 00:59:10;;;;;;;0.00;0.00;;;;;;;18.16;100.00;102286.56;5059953;28;20111;-46
2023/08/21 01:01:37;;;;;;;0.00;0.00;;;;;;;18.14;100.00;102294.13;5032044;28;1131854;-44
2023/08/21 01:04:03;;;;;;;0.00;0.00;;;;;;;18.08;100.00;102289.44;5072490;28;20434;-45
2023/08/21 01:06:28;;;;;;;0.00;0.00;;;;;;;18.04;100.00;102282.72;5071418;28;20043;-43
2023/08/21 01:09:08;;;;;;;0.00;0.00;;;;;;;17.98;100.00;102283.47;5077328;28;20023;-44
2023/08/21 01:12:15;;;;;;;0.00;0.00;;;;;;;17.95;100.00;102294.78;5079704;28;20037;-43
2023/08/21 01:14:58;;;;;;;0.00;0.00;;;;;;;17.96;100.00;102301.91;5052335;28;20098;-45
2023/08/21 01:17:24;;;;;;;0.00;0.00;;;;;;;17.98;100.00;102297.97;5037348;28;20031;-47
2023/08/21 01:19:50;;;;;;;0.00;0.00;;;;;;;17.98;100.00;102295.25;5071451;28;20036;-47
2023/08/21 01:22:16;;;;;;;0.00;0.00;;;;;;;17.96;100.00;102291.88;5053649;28;20116;-44
2023/08/21 01:24:41;;;;;;;0.00;0.00;;;;;;;17.96;100.00;102293.75;5071031;28;20107;-44
2023/08/21 01:27:07;;;;;;;0.00;0.00;;;;;;;18.00;100.00;102289.56;5070482;28;20046;-49
2023/08/21 01:29:33;;;;;;;0.00;0.00;;;;;;;18.05;100.00;102283.56;5036836;28;20127;-47
2023/08/21 01:32:09;;;;;;;0.00;0.00;;;;;;;18.14;100.00;102291.41;5071448;28;20024;-47
2023/08/21 01:34:37;;;;;;;0.00;0.00;;;;;;;18.27;100.00;102297.97;5071661;28;20453;-48
2023/08/21 01:37:03;;;;;;;0.00;0.00;;;;;;;18.32;100.00;102290.88;5052747;28;20039;-44
2023/08/21 01:39:28;;;;;;;0.00;0.00;;;;;;;18.36;100.00;102286.72;5072315;28;20025;-44
2023/08/21 01:41:55;;;;;;;0.00;0.00;;;;;;;18.37;100.00;102287.56;5053293;28;20021;-44
2023/08/21 01:44:21;;;;;;;0.00;0.00;;;;;;;18.36;100.00;102281.28;5071424;28;20029;-44
2023/08/21 01:46:46;;;;;;;0.00;0.00;;;;;;;18.27;100.00;102284.34;5084349;28;20028;-45
2023/08/21 01:49:12;;;;;;;0.00;0.00;;;;;;;18.16;100.00;102297.47;5071168;28;20029;-43
2023/08/21 01:51:37;;;;;;;0.00;0.00;;;;;;;18.12;100.00;102301.63;5071283;28;20064;-43
2023/08/21 01:54:02;;;;;;;0.00;0.00;;;;;;;18.06;100.00;102297.00;5073177;28;20016;-45
2023/08/21 01:56:28;;;;;;;0.00;0.00;;;;;;;18.03;100.00;102301.97;5091509;28;20490;-43
2023/08/21 01:58:53;;;;;;;0.00;0.00;;;;;;;17.96;100.00;102301.91;5073075;28;20046;-44
2023/08/21 02:01:18;;;;;;;0.00;0.00;;;;;;;17.90;100.00;102291.78;5091040;28;20486;-43
2023/08/21 02:03:45;;;;;;;0.00;0.00;;;;;;;17.89;100.00;102298.28;5095516;28;20410;-43
2023/08/21 02:06:10;;;;;;;0.00;0.00;;;;;;;17.89;100.00;102301.84;5044043;28;20533;-43
2023/08/21 02:08:36;;;;;;;0.00;0.00;;;;;;;17.87;100.00;102303.91;5070486;28;20032;-44
2023/08/21 02:11:01;;;;;;;0.00;0.00;;;;;;;17.86;100.00;102304.13;5073420;28;20028;-45
2023/08/21 02:13:26;;;;;;;0.00;0.00;;;;;;;17.83;100.00;102308.09;5054581;28;20017;-46
2023/08/21 02:15:52;;;;;;;0.00;0.00;;;;;;;17.81;100.00;102303.88;5071945;28;20075;-46
2023/08/21 02:18:17;;;;;;;0.00;0.00;;;;;;;17.74;100.00;102301.03;5070773;28;20028;-46
2023/08/21 02:20:43;;;;;;;0.00;0.00;;;;;;;17.72;100.00;102305.81;5071096;28;20395;-46
2023/08/21 02:23:08;;;;;;;0.00;0.00;;;;;;;17.70;100.00;102306.03;5070583;28;20033;-43
2023/08/21 02:25:34;;;;;;;0.00;0.00;;;;;;;17.70;100.00;102308.75;5070577;28;20332;-44
2023/08/21 02:27:59;;;;;;;0.00;0.00;;;;;;;17.67;100.00;102309.16;5071108;28;20107;-46
2023/08/21 02:30:25;;;;;;;0.00;0.00;;;;;;;17.60;100.00;102296.50;5070266;28;20111;-46
2023/08/21 02:32:52;;;;;;;0.00;0.00;;;;;;;17.57;100.00;102303.16;5070178;28;20028;-45
2023/08/21 02:35:17;;;;;;;0.00;0.00;;;;;;;17.51;100.00;102314.84;5070259;28;20020;-45
2023/08/21 02:37:43;;;;;;;0.00;0.00;;;;;;;17.46;100.00;102317.28;5069645;28;20339;-44
2023/08/21 02:40:08;;;;;;;0.00;0.00;;;;;;;17.42;100.00;102310.53;5070440;28;20478;-44
2023/08/21 02:42:34;;;;;;;0.00;0.00;;;;;;;17.41;100.00;102308.84;5070463;28;20020;-50
2023/08/21 02:44:59;;;;;;;0.00;0.00;;;;;;;17.40;100.00;102318.03;5070349;28;20441;-44
2023/08/21 02:47:24;;;;;;;0.00;0.00;;;;;;;17.39;100.00;102310.91;5070211;28;20480;-46
2023/08/21 02:49:50;;;;;;;0.00;0.00;;;;;;;17.36;100.00;102309.41;5070060;28;20033;-46
2023/08/21 02:52:17;;;;;;;0.00;0.00;;;;;;;17.37;100.00;102313.81;5070420;28;20104;-46
2023/08/21 02:54:42;;;;;;;0.00;0.00;;;;;;;17.38;100.00;102311.94;5070511;28;20455;-52
2023/08/21 02:57:07;;;;;;;0.00;0.00;;;;;;;17.39;100.00;102311.75;5070351;28;20028;-45
2023/08/21 02:59:33;;;;;;;0.00;0.00;;;;;;;17.40;100.00;102307.97;5087340;28;20102;-46
2023/08/21 03:01:58;;;;;;;0.00;0.00;;;;;;;17.40;100.00;102307.16;5090401;28;20511;-47
2023/08/21 03:04:24;;;;;;;0.00;0.00;;;;;;;17.38;100.00;102304.63;5090458;28;20021;-46
2023/08/21 03:06:49;;;;;;;0.00;0.00;;;;;;;17.36;100.00;102295.81;5090598;28;20149;-46
2023/08/21 03:09:14;;;;;;;0.00;0.00;;;;;;;17.34;100.00;102298.72;5070881;28;20055;-46
2023/08/21 03:11:40;;;;;;;0.00;0.00;;;;;;;17.31;100.00;102293.66;5069985;28;20459;-45
2023/08/21 03:14:05;;;;;;;0.00;0.00;;;;;;;17.29;100.00;102290.28;5070307;28;20502;-47
2023/08/21 03:16:30;;;;;;;0.00;0.00;;;;;;;17.31;100.00;102299.09;5070589;28;20022;-45
2023/08/21 03:18:56;;;;;;;0.00;0.00;;;;;;;17.36;100.00;102300.41;5084652;28;20112;-44
2023/08/21 03:21:23;;;;;;;0.00;0.00;;;;;;;17.37;100.00;102291.22;5090496;28;20024;-46
2023/08/21 03:23:50;;;;;;;0.00;0.00;;;;;;;17.38;100.00;102287.44;5090348;28;20120;-46
2023/08/21 03:26:16;;;;;;;;;;;;;;;17.40;100.00;102304.44;5090527;28;20024;-47
2023/08/21 03:28:41;;;;;;;0.00;0.00;;;;;;;17.40;100.00;102298.97;5067309;28;19976;-46
2023/08/21 03:31:06;;;;;;;0.00;0.00;;;;;;;17.41;100.00;102284.34;5090695;28;20440;-47
2023/08/21 03:33:32;;;;;;;0.00;0.00;;;;;;;17.40;100.00;102290.81;5090674;28;20492;-47
2023/08/21 03:35:57;;;;;;;0.00;0.00;;;;;;;17.40;100.00;102288.94;5075680;28;20029;-45
2023/08/21 03:38:22;;;;;;;0.00;0.00;;;;;;;17.38;100.00;102282.00;5069774;28;20474;-48
2023/08/21 03:40:48;;;;;;;0.00;0.00;;;;;;;17.37;100.00;102291.22;5069764;28;20479;-45
2023/08/21 03:43:13;;;;;;;0.00;0.00;;;;;;;17.37;100.00;102294.75;5069793;28;20056;-47
2023/08/21 03:45:38;;;;;;;0.00;0.00;;;;;;;17.36;100.00;102294.97;5069637;28;20021;-47
2023/08/21 03:48:04;;;;;;;0.00;0.00;;;;;;;17.34;100.00;102287.00;5068992;28;20032;-51
2023/08/21 03:50:29;;;;;;;0.00;0.00;;;;;;;17.29;100.00;102278.56;5068914;28;20386;-46
2023/08/21 03:52:54;;;;;;;0.00;0.00;;;;;;;17.27;100.00;102292.38;5073918;28;20036;-44
2023/08/21 03:55:20;;;;;;;0.00;0.00;;;;;;;17.23;100.00;102291.06;5073354;28;20569;-46
2023/08/21 03:57:45;;;;;;;0.00;0.00;;;;;;;17.20;100.00;102301.47;5072048;28;20036;-47
2023/08/21 04:00:11;;;;;;;0.00;0.00;;;;;;;17.18;100.00;102282.63;5071075;28;20028;-47
2023/08/21 04:02:37;;;;;;;0.00;0.00;;;;;;;17.16;100.00;102290.13;5073031;28;20039;-44
2023/08/21 04:05:02;;;;;;;0.00;0.00;;;;;;;17.16;100.00;102287.41;5072705;28;20433;-44
2023/08/21 04:07:28;;;;;;;0.00;0.00;;;;;;;17.11;100.00;102285.28;5072444;28;20024;-49
2023/08/21 04:09:53;;;;;;;0.00;0.00;;;;;;;17.13;100.00;102286.94;5072859;28;20307;-50
2023/08/21 04:12:18;;;;;;;0.00;0.00;;;;;;;17.11;100.00;102293.44;5072897;28;20419;-46
2023/08/21 04:14:44;;;;;;;0.00;0.00;;;;;;;17.05;100.00;102294.16;5072681;28;20028;-45
2023/08/21 04:17:09;;;;;;;0.00;0.00;;;;;;;17.01;100.00;102297.44;5072814;28;20107;-47
2023/08/21 04:19:34;;;;;;;0.00;0.00;;;;;;;17.01;100.00;102294.72;5072561;28;20028;-47
2023/08/21 04:22:00;;;;;;;0.00;0.00;;;;;;;17.05;100.00;102298.78;5072771;28;20481;-47
2023/08/21 04:24:25;;;;;;;0.00;0.00;;;;;;;17.06;100.00;102301.31;5074418;28;20017;-46
2023/08/21 04:26:50;;;;;;;0.00;0.00;;;;;;;17.08;100.00;102309.28;5075737;28;20024;-47
2023/08/21 04:29:16;;;;;;;0.00;0.00;;;;;;;17.05;100.00;102299.59;5080677;28;20028;-48
2023/08/21 04:31:41;;;;;;;0.00;0.00;;;;;;;17.02;100.00;102310.88;5071968;28;20025;-45
2023/08/21 04:34:06;;;;;;;0.00;0.00;;;;;;;17.03;100.00;102311.72;5072310;28;20032;-45
2023/08/21 04:36:32;;;;;;;0.00;0.00;;;;;;;17.01;100.00;102308.31;5073531;28;20535;-47
2023/08/21 04:38:57;;;;;;;0.00;0.00;;;;;;;16.99;100.00;102304.97;5052748;28;20447;-47
2023/08/21 04:41:22;;;;;;;0.00;0.00;;;;;;;16.98;100.00;102316.88;5072038;28;20028;-46
2023/08/21 04:43:48;;;;;;;0.00;0.00;;;;;;;16.98;100.00;102314.16;5069272;28;20054;-46
2023/08/21 04:46:13;;;;;;;0.00;0.00;;;;;;;16.98;100.00;102308.72;5071158;28;20085;-46
2023/08/21 04:48:39;;;;;;;0.00;0.00;;;;;;;17.01;100.00;102311.03;5071973;28;20013;-46
2023/08/21 04:51:04;;;;;;;0.00;0.00;;;;;;;17.04;100.00;102314.25;5069140;28;20510;-46
2023/08/21 04:53:30;;;;;;;0.00;0.00;;;;;;;17.08;100.00;102318.25;5072336;28;20119;-44
2023/08/21 04:55:55;;;;;;;0.00;0.00;;;;;;;17.11;100.00;102314.31;5068428;28;20028;-50
2023/08/21 04:58:21;;;;;;;0.00;0.00;;;;;;;17.10;100.00;102318.09;5049992;28;20035;-48
2023/08/21 05:00:46;;;;;;;0.00;0.00;;;;;;;17.09;100.00;102310.97;5071693;28;20041;-44
2023/08/21 05:03:12;;;;;;;0.00;0.00;;;;;;;17.13;100.00;102314.16;5067952;28;20024;-50
2023/08/21 05:05:37;;;;;;;0.00;0.00;;;;;;;17.15;100.00;102314.81;5072216;28;20382;-49
2023/08/21 05:08:03;;;;;;;0.00;0.00;;;;;;;17.20;100.00;102317.81;5071366;28;20414;-44
2023/08/21 05:10:28;;;;;;;0.00;0.00;;;;;;;17.22;100.00;102311.16;5069860;28;20024;-51
2023/08/21 05:12:57;;;;;;;0.00;0.00;;;;;;;17.26;100.00;102317.88;5067581;28;20038;-44
2023/08/21 05:15:22;;;;;;;0.00;0.00;;;;;;;17.34;100.00;102309.59;5070678;28;20031;-47
2023/08/21 05:17:47;;;;;;;0.00;0.00;;;;;;;17.41;100.00;102304.25;5070214;28;20036;-48
2023/08/21 05:20:14;;;;;;;0.00;0.00;;;;;;;17.50;100.00;102313.13;5070104;28;20071;-46
2023/08/21 05:22:40;;;;;;;0.00;0.00;;;;;;;17.57;100.00;102314.06;5070478;28;20029;-49
2023/08/21 05:25:06;;;;;;;0.00;0.00;;;;;;;17.62;100.00;102321.66;5070301;28;20055;-48
2023/08/21 05:27:31;;;;;;;0.00;0.00;;;;;;;17.65;100.00;102322.09;5075211;28;20039;-47
2023/08/21 05:29:57;;;;;;;0.00;0.00;;;;;;;17.72;100.00;102328.47;5089696;28;20394;-48
2023/08/21 05:32:22;;;;;;;0.00;0.00;;;;;;;17.80;100.00;102322.09;5072937;28;20074;-48
2023/08/21 05:34:48;;;;;;;0.00;0.00;;;;;;;17.91;100.00;102331.63;5071796;28;20107;-45
2023/08/21 05:37:13;;;;;;;0.00;0.00;;;;;;;18.03;100.00;102330.03;5071200;28;20509;-46
2023/08/21 05:39:38;;;;;;;0.00;0.00;;;;;;;18.14;100.00;102331.41;5070445;28;20067;-47
2023/08/21 05:42:04;;;;;;;0.00;0.00;;;;;;;18.33;100.00;102327.19;5071170;28;20474;-43
2023/08/21 05:44:29;;;;;;;0.00;0.00;;;;;;;18.55;100.00;102328.81;5071685;28;20071;-46
2023/08/21 05:46:54;;;;;;;0.00;0.00;;;;;;;18.97;100.00;102332.47;5070634;28;20025;-46
2023/08/21 05:49:20;;;;;;;0.00;0.00;;;;;;;19.54;100.00;102333.13;5071588;28;20032;-46
2023/08/21 05:51:45;;;;;;;0.00;0.00;;;;;;;20.25;100.00;102318.13;5080152;28;20394;-44
2023/08/21 05:54:11;;;;;;;0.00;0.00;;;;;;;21.12;100.00;102297.78;5091706;28;20386;-49
2023/08/21 05:56:36;;;;;;;0.00;0.00;;;;;;;22.08;100.00;102294.06;5077917;28;20036;-46
2023/08/21 05:59:01;;;;;;;0.00;0.00;;;;;;;22.89;100.00;102284.00;5072534;28;20035;-47
2023/08/21 06:01:27;;;;;;;0.00;0.00;;;;;;;23.61;100.00;102283.28;5071408;28;20127;-47
2023/08/21 06:03:52;;;;;;;0.00;0.00;;;;;;;24.19;100.00;102274.31;5081779;28;20425;-47
2023/08/21 06:06:18;;;;;;;0.00;0.00;;;;;;;24.68;100.00;102272.19;5070603;28;20025;-45
2023/08/21 06:08:43;;;;;;;0.00;0.00;;;;;;;25.19;100.00;102273.25;5070723;28;20417;-50
2023/08/21 06:11:09;;;;;;;0.00;0.00;;;;;;;25.46;100.00;102274.59;5070939;28;20439;-47
2023/08/21 06:13:34;;;;;;;0.00;0.00;;;;;;;25.71;100.00;102285.25;5070639;28;20028;-49
2023/08/21 06:16:00;;;;;;;0.00;0.00;;;;;;;25.26;100.00;102280.56;5070689;28;20032;-46
2023/08/21 06:18:25;;;;;;;0.00;0.00;;;;;;;25.35;100.00;102281.84;5052008;28;20029;-48
2023/08/21 06:20:53;;;;;;;0.00;0.00;;;;;;;25.48;100.00;102287.03;5070852;28;20056;-47
2023/08/21 06:23:20;;;;;;;0.00;0.00;;;;;;;25.55;100.00;102284.97;5071340;28;20108;-45
2023/08/21 06:25:47;;;;;;;0.00;0.00;;;;;;;25.67;100.00;102295.09;5055542;28;20036;-44
2023/08/21 06:28:13;;;;;;;0.00;0.00;;;;;;;25.66;100.00;102290.69;5075237;28;20028;-44
2023/08/21 06:30:38;;;;;;;0.00;0.00;;;;;;;25.71;100.00;102293.53;5078457;28;20031;-47
2023/08/21 06:33:03;;;;;;;0.00;0.00;;;;;;;25.87;100.00;102295.50;5051824;28;20039;-44
2023/08/21 06:35:29;;;;;;;0.00;0.00;;;;;;;25.37;100.00;102294.28;5070938;28;20023;-44
2023/08/21 06:37:54;;;;;;;0.00;0.00;;;;;;;25.34;100.00;102293.97;5070884;28;20411;-46
2023/08/21 06:40:20;;;;;;;0.00;0.00;;;;;;;25.58;100.00;102297.44;5070889;28;20028;-46
2023/08/21 06:42:45;;;;;;;0.00;0.00;;;;;;;25.37;100.00;102287.94;5078996;28;20043;-44
2023/08/21 06:45:10;;;;;;;0.00;0.00;;;;;;;25.32;100.00;102287.84;5068179;28;20451;-49
2023/08/21 06:47:36;;;;;;;0.00;0.00;;;;;;;25.44;100.00;102299.66;5049199;28;20035;-45
2023/08/21 06:50:01;;;;;;;0.00;0.00;;;;;;;26.06;100.00;102299.69;5071504;28;20075;-45
2023/08/21 06:52:27;;;;;;;0.00;0.00;;;;;;;26.28;100.00;102301.69;5086268;28;20024;-45
2023/08/21 06:54:52;;;;;;;0.00;0.00;;;;;;;26.80;100.00;102293.06;5064118;28;20035;-44
2023/08/21 06:57:17;;;;;;;0.00;0.00;;;;;;;27.07;100.00;102303.38;5053812;28;20024;-46
2023/08/21 06:59:43;;;;;;;0.00;0.00;;;;;;;27.40;100.00;102301.56;5051909;28;20371;-49
2023/08/21 07:02:08;;;;;;;0.00;0.00;;;;;;;27.48;100.00;102309.41;5069512;28;21209;-45
2023/08/21 07:04:33;;;;;;;0.00;0.00;;;;;;;27.83;100.00;102299.81;5067826;28;20062;-45
2023/08/21 07:06:59;;;;;;;0.00;0.00;;;;;;;28.40;100.00;102299.16;5068922;28;20025;-48
2023/08/21 07:09:24;;;;;;;0.00;0.00;;;;;;;28.79;100.00;102304.38;5069837;28;20020;-46
2023/08/21 07:11:50;;;;;;;0.00;0.00;;;;;;;29.09;100.00;102304.53;5071136;28;20037;-46
2023/08/21 07:14:16;;;;;;;0.00;0.00;;;;;;;29.30;100.00;102307.38;5070347;28;20136;-46
2023/08/21 07:16:42;;;;;;;0.00;0.00;;;;;;;29.01;100.00;102313.34;5071454;28;20028;-45
2023/08/21 07:19:07;;;;;;;0.00;0.00;;;;;;;29.28;100.00;102309.59;5067405;28;20025;-47
2023/08/21 07:21:35;;;;;;;0.00;0.00;;;;;;;29.54;100.00;102310.47;5069458;28;20023;-43
2023/08/21 07:24:02;;;;;;;0.00;0.00;;;;;;;29.62;100.00;102314.66;5067604;28;20021;-46
2023/08/21 07:26:28;;;;;;;0.00;0.00;;;;;;;29.37;100.00;102310.72;5071709;28;20509;-46
2023/08/21 07:28:54;;;;;;;0.00;0.00;;;;;;;29.40;100.00;102307.41;5074091;28;20232;-44
2023/08/21 07:31:19;;;;;;;0.00;0.00;;;;;;;29.79;100.00;102308.91;5069075;28;20438;-47
2023/08/21 07:33:44;;;;;;;0.00;0.00;;;;;;;30.21;100.00;102311.38;5073609;28;20032;-43
2023/08/21 07:36:14;;;;;;;0.00;0.00;;;;;;;30.29;100.00;102315.59;5074856;28;20040;-46
2023/08/21 07:38:40;;;;;;;0.00;0.00;;;;;;;30.60;98.84;102317.19;5075921;28;20024;-44
2023/08/21 07:41:08;;;;;;;0.00;0.00;;;;;;;30.29;99.01;102313.63;5070985;28;20091;-49
2023/08/21 07:43:33;;;;;;;0.00;0.00;;;;;;;30.32;99.73;102313.06;5072752;28;20024;-45
2023/08/21 07:46:06;;;;;;;0.00;0.00;;;;;;;30.35;98.57;102318.06;5075610;28;20057;-46
2023/08/21 07:48:31;;;;;;;0.00;0.00;;;;;;;30.47;97.37;102320.56;5074741;28;20020;-48
2023/08/21 07:50:57;;;;;;;0.00;0.00;;;;;;;30.43;96.92;102326.94;5070170;28;20035;-44
2023/08/21 07:53:23;;;;;;;0.00;0.00;;;;;;;29.86;98.69;102326.09;5075004;28;20059;-45
2023/08/21 07:55:48;;;;;;;0.00;0.00;;;;;;;29.40;96.65;102324.06;5068998;28;20058;-44
2023/08/21 07:58:14;;;;;;;0.00;0.00;;;;;;;29.35;100.00;102312.13;5071812;28;20024;-45
2023/08/21 08:00:40;;;;;;;0.00;0.00;;;;;;;29.27;97.90;102319.03;5055661;28;20032;-46
2023/08/21 08:03:06;;;;;;;0.00;0.00;;;;;;;28.80;97.35;102325.44;5056162;28;20283;-46
2023/08/21 08:05:32;;;;;;;0.00;0.00;;;;;;;29.35;99.01;102323.19;5052654;28;20020;-45
2023/08/21 08:07:57;;;;;;;0.00;0.00;;;;;;;29.25;97.40;102315.69;5070964;28;20079;-46
2023/08/21 08:10:24;;;;;;;0.00;0.00;;;;;;;30.02;95.26;102313.03;5075164;28;20034;-46
2023/08/21 08:12:49;;;;;;;;;;;;;;;31.00;90.41;102329.31;5072584;28;20062;-47
2023/08/21 08:15:14;;;;;;;0.00;0.00;;;;;;;30.78;88.73;102335.19;5073078;28;19967;-44
2023/08/21 08:17:40;;;;;;;0.00;0.00;;;;;;;31.20;88.69;102328.41;5054077;28;20028;-46
2023/08/21 08:20:06;;;;;;;0.00;0.00;;;;;;;31.45;86.42;102340.53;5066766;28;20071;-47
2023/08/21 08:22:31;;;;;;;0.00;0.00;;;;;;;31.90;85.64;102342.16;5067797;28;20049;-47
2023/08/21 08:24:57;;;;;;;0.00;0.00;;;;;;;32.48;82.06;102338.63;5054131;28;20029;-46
2023/08/21 08:27:22;;;;;;;0.00;0.00;;;;;;;32.57;82.14;102339.66;5071575;28;20138;-45
2023/08/21 08:29:47;;;;;;;0.00;0.00;;;;;;;32.60;81.41;102337.38;5070333;28;21016;-45
2023/08/21 08:32:13;;;;;;;0.00;0.00;;;;;;;32.92;80.74;102326.41;5072749;28;20071;-44
2023/08/21 08:34:38;;;;;;;0.00;0.00;;;;;;;33.23;76.94;102317.69;5070458;28;20118;-46
2023/08/21 08:37:03;;;;;;;0.00;0.00;;;;;;;32.53;76.09;102324.63;5069421;28;20048;-47
2023/08/21 08:39:29;;;;;;;0.00;0.00;;;;;;;32.22;79.68;102314.91;5071040;28;20032;-47
2023/08/21 08:41:57;;;;;;;0.00;0.00;;;;;;;32.32;78.96;102312.00;5054302;28;20020;-47
2023/08/21 08:44:25;;;;;;;0.00;0.00;;;;;;;32.64;77.69;102316.16;5071383;28;20444;-47
2023/08/21 08:46:51;;;;;;;0.00;0.00;;;;;;;33.34;75.25;102323.97;5070739;28;20028;-45
2023/08/21 08:49:16;;;;;;;0.00;0.00;;;;;;;32.95;75.37;102325.00;5052021;28;20407;-50
2023/08/21 08:51:42;;;;;;;0.00;0.00;;;;;;;33.26;73.24;102325.47;5071568;28;20067;-49
2023/08/21 08:54:08;;;;;;;;;;;;;;;32.75;74.64;102328.84;5055169;28;20051;-48
2023/08/21 08:56:33;;;;;;;0.00;0.00;;;;;;;32.53;77.97;102321.03;5073059;28;19943;-47
2023/08/21 08:58:59;;;;;;;0.00;0.00;;;;;;;32.87;77.25;102323.69;5073114;28;20146;-47
2023/08/21 09:01:26;;;;;;;0.00;0.00;;;;;;;33.45;75.27;102329.06;5072632;28;20157;-45
2023/08/21 09:03:51;;;;;;;0.00;0.00;;;;;;;33.53;73.40;102332.31;5069594;28;20451;-44
2023/08/21 09:06:17;;;;;;;0.00;0.00;;;;;;;33.12;72.21;102332.88;5063920;28;20017;-44
2023/08/21 09:08:55;;;;;;;0.30;0.00;;;;;;;32.62;75.61;102326.78;5066602;28;20233;-46
2023/08/21 09:11:21;;;;;;;0.00;0.00;;;;;;;32.91;75.45;102330.31;5068062;28;20021;-47
2023/08/21 09:13:49;;;;;;;0.00;0.00;;;;;;;32.78;75.61;102331.03;5053778;28;20027;-46
2023/08/21 09:16:16;;;;;;;0.00;0.00;;;;;;;32.77;76.82;102334.97;5071742;28;20392;-47
2023/08/21 09:18:53;;;;;;;0.25;0.00;;;;;;;32.92;74.83;102334.78;5070909;28;20036;-44
2023/08/21 09:21:20;;;;;;;0.00;0.00;;;;;;;33.13;73.61;102326.19;5064193;28;20021;-49
2023/08/21 09:23:48;;;;;;;0.00;0.00;;;;;;;33.71;72.10;102327.91;5071286;28;20033;-45
2023/08/21 09:26:23;;;;;;;0.00;0.00;;;;;;;33.85;72.59;102328.78;5071406;28;20021;-49
2023/08/21 09:28:50;;;;;;;0.00;0.00;;;;;;;34.01;71.45;102326.56;5071702;28;20029;-44
2023/08/21 09:31:15;;;;;;;0.00;0.00;;;;;;;34.58;68.60;102321.66;5071751;28;20035;-43
2023/08/21 09:33:41;;;;;;;0.00;0.00;;;;;;;35.33;64.32;102325.13;5071536;28;20088;-44
2023/08/21 09:36:06;;;;;;;0.00;0.00;;;;;;;34.77;65.01;102321.56;5071505;28;20187;-45
2023/08/21 09:38:33;;;;;;;0.00;0.00;;;;;;;34.11;66.04;102320.00;5053495;28;20028;-46
2023/08/21 09:40:59;;;;;;;0.00;0.00;;;;;;;33.90;65.69;102319.50;5071394;28;20020;-45
2023/08/21 09:43:25;;;;;;;0.00;0.00;;;;;;;33.71;66.48;102323.13;5071386;28;20046;-46
2023/08/21 09:45:53;;;;;;;0.00;0.00;;;;;;;33.69;66.58;102319.00;5071356;28;20028;-43
2023/08/21 09:48:21;;;;;;;0.00;0.00;;;;;;;33.42;66.78;102320.50;5070948;28;20489;-48
2023/08/21 09:50:47;;;;;;;0.00;0.00;;;;;;;33.64;64.84;102311.53;5071174;28;20028;-45
2023/08/21 09:53:12;;;;;;;0.00;0.00;;;;;;;33.31;67.03;102313.38;5071166;28;20020;-45
2023/08/21 09:55:38;;;;;;;0.00;0.00;;;;;;;33.42;65.96;102320.50;5071250;28;20024;-43
2023/08/21 09:58:04;;;;;;;0.00;0.00;;;;;;;33.14;66.67;102319.47;5071257;28;20029;-44
2023/08/21 10:00:31;;;;;;;0.00;0.00;;;;;;;33.65;65.20;102313.16;5070838;28;20226;-46
2023/08/21 10:02:58;;;;;;;;;;;;;;;33.67;66.36;102316.50;5071598;28;20498;-46
2023/08/21 10:05:24;;;;;;;0.00;0.00;;;;;;;33.38;65.88;102319.41;5070796;28;19931;-43
2023/08/21 10:07:50;;;;;;;0.00;0.00;;;;;;;33.45;65.43;102320.69;5052944;28;20553;-44
2023/08/21 10:10:16;;;;;;;0.00;0.00;;;;;;;33.62;66.55;102322.97;5071958;28;20032;-42
2023/08/21 10:12:41;;;;;;;0.00;0.00;;;;;;;34.09;62.86;102320.28;5072455;28;20020;-42
2023/08/21 10:15:09;;;;;;;0.00;0.00;;;;;;;33.71;62.91;102322.31;5071677;28;20543;-43
2023/08/21 10:17:35;;;;;;;0.00;0.00;;;;;;;33.30;63.20;102326.50;5070073;28;20086;-45
2023/08/21 10:20:09;;;;;;;0.00;0.00;;;;;;;33.17;63.06;102325.28;5069319;28;20406;-46
2023/08/21 10:22:42;;;;;;;0.00;0.00;;;;;;;33.09;65.58;102323.16;5071139;28;20024;-45
2023/08/21 10:25:21;;;;;;;0.00;0.00;;;;;;;33.42;65.13;102310.16;5071853;28;20035;-49
2023/08/21 10:27:50;;;;;;;0.00;0.00;;;;;;;33.67;64.47;102316.50;5055438;28;20035;-45
2023/08/21 10:30:20;;;;;;;0.00;0.00;;;;;;;32.70;65.15;102309.41;5069509;28;20091;-45
2023/08/21 10:32:47;;;;;;;0.00;0.00;;;;;;;33.20;66.44;102301.53;5070982;28;20039;-43
2023/08/21 10:35:18;;;;;;;0.00;0.00;;;;;;;33.36;66.64;102316.94;5071354;28;20036;-43
2023/08/21 10:38:06;;;;;;;0.00;0.00;;;;;;;32.76;68.05;102319.38;5072936;28;20020;-43
2023/08/21 10:40:32;;;;;;;0.00;0.00;;;;;;;32.90;68.13;102311.94;5071364;28;20029;-45
2023/08/21 10:42:58;;;;;;;0.00;0.00;;;;;;;33.09;68.33;102311.19;5032360;28;20035;-44
2023/08/21 10:45:23;;;;;;;0.00;0.00;;;;;;;32.74;69.01;102308.50;5073372;28;20032;-45
2023/08/21 10:47:50;;;;;;;0.00;0.00;;;;;;;32.56;70.04;102320.44;5073481;28;20432;-43
2023/08/21 10:50:16;;;;;;;0.00;0.00;;;;;;;32.29;68.43;102307.03;5073046;28;20024;-45
2023/08/21 10:52:44;;;;;;;0.00;0.00;;;;;;;32.65;68.35;102304.72;5062536;28;20048;-43
2023/08/21 10:55:11;;;;;;;0.00;0.00;;;;;;;32.33;70.21;102310.88;5071310;28;20352;-44
2023/08/21 10:57:37;;;;;;;0.00;0.00;;;;;;;32.33;70.53;102305.31;5071159;28;20035;-46
2023/08/21 11:00:13;;;;;;;0.00;0.00;;;;;;;32.48;68.16;102305.19;5072026;28;20035;-46
2023/08/21 11:02:39;;;;;;;;;;;;;;;32.09;69.76;102302.47;5074860;28;20470;-46
2023/08/21 11:05:06;;;;;;;0.00;0.00;;;;;;;31.85;68.48;102316.31;5074484;28;19912;-46
2023/08/21 11:07:38;;;;;;;0.00;0.00;;;;;;;32.11;68.29;102309.41;5075763;28;20033;-43
2023/08/21 11:10:05;;;;;;;0.00;0.00;;;;;;;31.86;69.76;102323.53;5082401;28;20386;-43
2023/08/21 11:12:30;;;;;;;0.00;0.00;;;;;;;31.54;68.44;102318.47;5051191;28;20024;-46
2023/08/21 11:14:55;;;;;;;0.00;0.00;;;;;;;31.27;69.41;102309.41;5063244;28;20387;-45
2023/08/21 11:17:23;;;;;;;0.00;0.00;;;;;;;31.57;69.48;102312.31;5070843;28;20024;-46